sensor_id;sensor_type;location;lat;lon;timestamp;temperature;humidity
2957;DHT22;1488;51.548;7.222;2023-04-25T00:01:03;20.50;71.50
2957;DHT22;1488;51.548;7.222;2023-04-25T00:03:31;20.50;71.50
2957;DHT22;1488;51.548;7.222;2023-04-25T00:05:59;20.60;71.70
2957;DHT22;1488;51.548;7.222;2023-04-25T00:08:28;20.50;71.50
2957;DHT22;1488;51.548;7.222;2023-04-25T00:10:56;20.50;72.40
2957;DHT22;1488;51.548;7.222;2023-04-25T00:13:23;20.70;71.70
2957;DHT22;1488;51.548;7.222;2023-04-25T00:15:50;20.50;71.40
2957;DHT22;1488;51.548;7.222;2023-04-25T00:18:21;20.50;71.50
2957;DHT22;1488;51.548;7.222;2023-04-25T00:20:48;20.50;71.50
2957;DHT22;1488;51.548;7.222;2023-04-25T00:23:17;20.70;71.80
2957;DHT22;1488;51.548;7.222;2023-04-25T00:25:44;20.50;71.50
2957;DHT22;1488;51.548;7.222;2023-04-25T00:28:11;20.50;71.50
2957;DHT22;1488;51.548;7.222;2023-04-25T00:30:38;20.60;71.70
2957;DHT22;1488;51.548;7.222;2023-04-25T00:33:05;20.40;71.40
2957;DHT22;1488;51.548;7.222;2023-04-25T00:35:31;20.50;71.60
2957;DHT22;1488;51.548;7.222;2023-04-25T00:37:58;20.50;71.50
2957;DHT22;1488;51.548;7.222;2023-04-25T00:40:27;20.50;71.50
2957;DHT22;1488;51.548;7.222;2023-04-25T00:42:54;20.50;71.50
2957;DHT22;1488;51.548;7.222;2023-04-25T00:45:20;20.50;71.50
2957;DHT22;1488;51.548;7.222;2023-04-25T00:47:47;20.50;71.40
2957;DHT22;1488;51.548;7.222;2023-04-25T00:50:14;20.50;71.50
2957;DHT22;1488;51.548;7.222;2023-04-25T00:52:43;20.50;71.50
2957;DHT22;1488;51.548;7.222;2023-04-25T00:55:11;20.50;71.50
2957;DHT22;1488;51.548;7.222;2023-04-25T00:57:40;20.50;71.60
2957;DHT22;1488;51.548;7.222;2023-04-25T01:00:08;20.50;71.50
2957;DHT22;1488;51.548;7.222;2023-04-25T01:02:36;20.50;71.50
2957;DHT22;1488;51.548;7.222;2023-04-25T01:05:04;20.50;71.50
2957;DHT22;1488;51.548;7.222;2023-04-25T01:07:31;20.50;71.60
2957;DHT22;1488;51.548;7.222;2023-04-25T01:09:58;20.50;71.60
2957;DHT22;1488;51.548;7.222;2023-04-25T01:12:25;20.50;71.50
2957;DHT22;1488;51.548;7.222;2023-04-25T01:14:53;20.50;71.50
2957;DHT22;1488;51.548;7.222;2023-04-25T01:17:20;20.50;71.60
2957;DHT22;1488;51.548;7.222;2023-04-25T01:19:47;20.50;71.50
2957;DHT22;1488;51.548;7.222;2023-04-25T01:22:16;20.50;71.50
2957;DHT22;1488;51.548;7.222;2023-04-25T01:24:43;20.50;71.50
2957;DHT22;1488;51.548;7.222;2023-04-25T01:27:10;20.50;71.50
2957;DHT22;1488;51.548;7.222;2023-04-25T01:29:38;20.60;71.70
2957;DHT22;1488;51.548;7.222;2023-04-25T01:32:06;20.50;71.60
2957;DHT22;1488;51.548;7.222;2023-04-25T01:34:33;20.50;71.50
2957;DHT22;1488;51.548;7.222;2023-04-25T01:37:00;20.40;71.50
2957;DHT22;1488;51.548;7.222;2023-04-25T01:39:28;20.40;71.50
2957;DHT22;1488;51.548;7.222;2023-04-25T01:41:56;20.40;71.40
2957;DHT22;1488;51.548;7.222;2023-04-25T01:44:23;20.40;71.40
2957;DHT22;1488;51.548;7.222;2023-04-25T01:46:50;20.40;71.50
2957;DHT22;1488;51.548;7.222;2023-04-25T01:49:16;20.40;72.30
2957;DHT22;1488;51.548;7.222;2023-04-25T01:51:44;20.40;71.50
2957;DHT22;1488;51.548;7.222;2023-04-25T01:54:11;20.40;71.50
2957;DHT22;1488;51.548;7.222;2023-04-25T01:56:40;20.40;71.40
2957;DHT22;1488;51.548;7.222;2023-04-25T01:59:07;20.40;71.60
2957;DHT22;1488;51.548;7.222;2023-04-25T02:01:34;20.40;71.40
2957;DHT22;1488;51.548;7.222;2023-04-25T02:04:01;20.40;71.50
2957;DHT22;1488;51.548;7.222;2023-04-25T02:06:27;20.40;71.50
2957;DHT22;1488;51.548;7.222;2023-04-25T02:08:54;20.40;71.50
2957;DHT22;1488;51.548;7.222;2023-04-25T02:11:21;20.50;71.60
2957;DHT22;1488;51.548;7.222;2023-04-25T02:13:49;20.40;71.60
2957;DHT22;1488;51.548;7.222;2023-04-25T02:16:16;20.40;71.40
2957;DHT22;1488;51.548;7.222;2023-04-25T02:18:43;20.40;71.50
2957;DHT22;1488;51.548;7.222;2023-04-25T02:21:10;20.60;71.70
2957;DHT22;1488;51.548;7.222;2023-04-25T02:23:37;20.40;71.40
2957;DHT22;1488;51.548;7.222;2023-04-25T02:26:04;20.50;71.60
2957;DHT22;1488;51.548;7.222;2023-04-25T02:28:31;20.50;71.70
2957;DHT22;1488;51.548;7.222;2023-04-25T02:30:59;20.40;71.50
2957;DHT22;1488;51.548;7.222;2023-04-25T02:33:26;20.40;71.40
2957;DHT22;1488;51.548;7.222;2023-04-25T02:35:53;20.50;71.70
2957;DHT22;1488;51.548;7.222;2023-04-25T02:38:20;20.40;71.50
2957;DHT22;1488;51.548;7.222;2023-04-25T02:40:47;20.40;71.60
2957;DHT22;1488;51.548;7.222;2023-04-25T02:43:13;20.40;71.40
2957;DHT22;1488;51.548;7.222;2023-04-25T02:45:41;20.50;72.50
2957;DHT22;1488;51.548;7.222;2023-04-25T02:51:31;20.40;71.40
2957;DHT22;1488;51.548;7.222;2023-04-25T02:53:58;20.30;71.60
2957;DHT22;1488;51.548;7.222;2023-04-25T02:56:25;20.30;71.50
2957;DHT22;1488;51.548;7.222;2023-04-25T02:58:52;20.30;71.60
2957;DHT22;1488;51.548;7.222;2023-04-25T03:01:19;20.30;71.50
2957;DHT22;1488;51.548;7.222;2023-04-25T03:03:46;20.30;71.50
2957;DHT22;1488;51.548;7.222;2023-04-25T03:06:13;20.30;71.50
2957;DHT22;1488;51.548;7.222;2023-04-25T03:08:42;20.30;71.60
2957;DHT22;1488;51.548;7.222;2023-04-25T03:11:09;20.30;71.50
2957;DHT22;1488;51.548;7.222;2023-04-25T03:13:36;20.30;71.40
2957;DHT22;1488;51.548;7.222;2023-04-25T03:16:03;20.30;71.50
2957;DHT22;1488;51.548;7.222;2023-04-25T03:18:30;20.30;71.50
2957;DHT22;1488;51.548;7.222;2023-04-25T03:20:57;20.30;71.50
2957;DHT22;1488;51.548;7.222;2023-04-25T03:23:23;20.30;71.50
2957;DHT22;1488;51.548;7.222;2023-04-25T03:25:52;20.30;71.40
2957;DHT22;1488;51.548;7.222;2023-04-25T03:28:19;20.40;71.60
2957;DHT22;1488;51.548;7.222;2023-04-25T03:30:46;20.30;71.50
2957;DHT22;1488;51.548;7.222;2023-04-25T03:33:13;20.50;71.80
2957;DHT22;1488;51.548;7.222;2023-04-25T03:35:40;20.50;71.80
2957;DHT22;1488;51.548;7.222;2023-04-25T03:38:08;20.30;71.70
2957;DHT22;1488;51.548;7.222;2023-04-25T03:40:34;20.30;71.50
2957;DHT22;1488;51.548;7.222;2023-04-25T03:43:02;20.30;71.50
2957;DHT22;1488;51.548;7.222;2023-04-25T03:45:29;20.30;71.50
2957;DHT22;1488;51.548;7.222;2023-04-25T03:47:56;20.30;71.40
2957;DHT22;1488;51.548;7.222;2023-04-25T03:50:23;20.30;71.60
2957;DHT22;1488;51.548;7.222;2023-04-25T03:52:50;20.30;71.50
2957;DHT22;1488;51.548;7.222;2023-04-25T03:55:17;20.30;71.50
2957;DHT22;1488;51.548;7.222;2023-04-25T03:57:44;20.30;71.60
2957;DHT22;1488;51.548;7.222;2023-04-25T04:00:14;20.30;71.60
2957;DHT22;1488;51.548;7.222;2023-04-25T04:02:41;20.30;71.70
2957;DHT22;1488;51.548;7.222;2023-04-25T04:05:07;20.30;71.50
2957;DHT22;1488;51.548;7.222;2023-04-25T04:07:34;20.30;71.50
2957;DHT22;1488;51.548;7.222;2023-04-25T04:10:05;20.40;71.50
2957;DHT22;1488;51.548;7.222;2023-04-25T04:12:32;20.30;71.50
2957;DHT22;1488;51.548;7.222;2023-04-25T04:14:59;20.30;71.50
2957;DHT22;1488;51.548;7.222;2023-04-25T04:17:27;20.30;71.70
2957;DHT22;1488;51.548;7.222;2023-04-25T04:19:54;20.30;71.50
2957;DHT22;1488;51.548;7.222;2023-04-25T04:22:22;20.30;71.50
2957;DHT22;1488;51.548;7.222;2023-04-25T04:24:48;20.30;71.50
2957;DHT22;1488;51.548;7.222;2023-04-25T04:27:17;20.40;71.60
2957;DHT22;1488;51.548;7.222;2023-04-25T04:29:45;20.30;71.50
2957;DHT22;1488;51.548;7.222;2023-04-25T04:32:13;20.30;71.50
2957;DHT22;1488;51.548;7.222;2023-04-25T04:34:41;20.30;71.50
2957;DHT22;1488;51.548;7.222;2023-04-25T04:37:08;20.30;71.50
2957;DHT22;1488;51.548;7.222;2023-04-25T04:39:38;20.20;71.40
2957;DHT22;1488;51.548;7.222;2023-04-25T04:42:05;20.20;71.50
2957;DHT22;1488;51.548;7.222;2023-04-25T04:44:32;20.20;71.50
2957;DHT22;1488;51.548;7.222;2023-04-25T04:47:00;20.30;71.40
2957;DHT22;1488;51.548;7.222;2023-04-25T04:49:27;20.30;71.60
2957;DHT22;1488;51.548;7.222;2023-04-25T04:51:55;20.30;71.40
2957;DHT22;1488;51.548;7.222;2023-04-25T04:54:22;20.30;71.70
2957;DHT22;1488;51.548;7.222;2023-04-25T04:56:49;20.30;71.70
2957;DHT22;1488;51.548;7.222;2023-04-25T04:59:16;20.40;72.00
2957;DHT22;1488;51.548;7.222;2023-04-25T05:01:42;20.30;72.10
2957;DHT22;1488;51.548;7.222;2023-04-25T05:04:09;20.30;72.00
2957;DHT22;1488;51.548;7.222;2023-04-25T05:06:36;20.30;72.30
2957;DHT22;1488;51.548;7.222;2023-04-25T05:09:04;20.30;72.40
2957;DHT22;1488;51.548;7.222;2023-04-25T05:11:31;20.30;72.50
2957;DHT22;1488;51.548;7.222;2023-04-25T05:13:58;20.30;72.70
2957;DHT22;1488;51.548;7.222;2023-04-25T05:16:25;20.30;72.70
2957;DHT22;1488;51.548;7.222;2023-04-25T05:18:51;20.30;72.70
2957;DHT22;1488;51.548;7.222;2023-04-25T05:21:18;20.40;73.00
2957;DHT22;1488;51.548;7.222;2023-04-25T05:23:45;20.30;71.90
2957;DHT22;1488;51.548;7.222;2023-04-25T05:26:13;20.30;72.20
2957;DHT22;1488;51.548;7.222;2023-04-25T05:28:42;20.30;72.20
2957;DHT22;1488;51.548;7.222;2023-04-25T05:31:09;20.30;72.40
2957;DHT22;1488;51.548;7.222;2023-04-25T05:33:36;20.30;72.60
2957;DHT22;1488;51.548;7.222;2023-04-25T05:36:04;20.30;72.80
2957;DHT22;1488;51.548;7.222;2023-04-25T05:38:31;20.30;72.60
2957;DHT22;1488;51.548;7.222;2023-04-25T05:40:58;20.30;72.70
2957;DHT22;1488;51.548;7.222;2023-04-25T05:43:27;20.30;72.70
2957;DHT22;1488;51.548;7.222;2023-04-25T05:45:53;20.30;72.50
2957;DHT22;1488;51.548;7.222;2023-04-25T05:48:20;20.30;72.50
2957;DHT22;1488;51.548;7.222;2023-04-25T05:50:47;20.40;72.40
2957;DHT22;1488;51.548;7.222;2023-04-25T05:53:14;20.40;72.50
2957;DHT22;1488;51.548;7.222;2023-04-25T05:55:41;20.30;72.40
2957;DHT22;1488;51.548;7.222;2023-04-25T05:58:07;20.30;72.50
2957;DHT22;1488;51.548;7.222;2023-04-25T06:00:36;20.30;72.60
2957;DHT22;1488;51.548;7.222;2023-04-25T06:03:03;20.40;72.60
2957;DHT22;1488;51.548;7.222;2023-04-25T06:05:32;20.30;72.30
2957;DHT22;1488;51.548;7.222;2023-04-25T06:07:59;20.30;72.40
2957;DHT22;1488;51.548;7.222;2023-04-25T06:10:26;20.30;72.40
2957;DHT22;1488;51.548;7.222;2023-04-25T06:12:53;20.50;72.70
2957;DHT22;1488;51.548;7.222;2023-04-25T06:15:20;20.30;72.50
2957;DHT22;1488;51.548;7.222;2023-04-25T06:17:48;20.30;72.60
2957;DHT22;1488;51.548;7.222;2023-04-25T06:20:15;20.30;72.40
2957;DHT22;1488;51.548;7.222;2023-04-25T06:22:42;20.40;72.60
2957;DHT22;1488;51.548;7.222;2023-04-25T06:25:09;20.30;72.50
2957;DHT22;1488;51.548;7.222;2023-04-25T06:27:35;20.30;72.40
2957;DHT22;1488;51.548;7.222;2023-04-25T06:30:03;20.50;72.70
2957;DHT22;1488;51.548;7.222;2023-04-25T06:32:30;20.40;72.50
2957;DHT22;1488;51.548;7.222;2023-04-25T06:34:59;20.40;72.40
2957;DHT22;1488;51.548;7.222;2023-04-25T06:37:26;20.40;72.20
2957;DHT22;1488;51.548;7.222;2023-04-25T06:39:53;20.40;71.40
2957;DHT22;1488;51.548;7.222;2023-04-25T06:42:29;20.40;72.00
2957;DHT22;1488;51.548;7.222;2023-04-25T06:44:59;20.50;71.90
2957;DHT22;1488;51.548;7.222;2023-04-25T06:47:26;20.50;72.00
2957;DHT22;1488;51.548;7.222;2023-04-25T06:49:53;20.50;71.80
2957;DHT22;1488;51.548;7.222;2023-04-25T06:52:21;20.50;71.80
2957;DHT22;1488;51.548;7.222;2023-04-25T06:54:48;20.50;71.90
2957;DHT22;1488;51.548;7.222;2023-04-25T06:57:15;20.50;71.90
2957;DHT22;1488;51.548;7.222;2023-04-25T06:59:42;20.50;71.80
2957;DHT22;1488;51.548;7.222;2023-04-25T07:02:10;20.50;71.80
2957;DHT22;1488;51.548;7.222;2023-04-25T07:04:36;20.60;71.80
2957;DHT22;1488;51.548;7.222;2023-04-25T07:07:03;20.50;72.70
2957;DHT22;1488;51.548;7.222;2023-04-25T07:09:31;20.50;71.60
2957;DHT22;1488;51.548;7.222;2023-04-25T07:11:59;20.50;72.40
2957;DHT22;1488;51.548;7.222;2023-04-25T07:14:27;20.50;71.50
2957;DHT22;1488;51.548;7.222;2023-04-25T07:16:53;20.60;71.50
2957;DHT22;1488;51.548;7.222;2023-04-25T07:19:21;20.70;71.70
2957;DHT22;1488;51.548;7.222;2023-04-25T07:21:49;20.60;71.30
2957;DHT22;1488;51.548;7.222;2023-04-25T07:24:16;20.60;71.40
2957;DHT22;1488;51.548;7.222;2023-04-25T07:26:47;20.60;71.50
2957;DHT22;1488;51.548;7.222;2023-04-25T07:29:16;20.60;71.30
2957;DHT22;1488;51.548;7.222;2023-04-25T07:31:44;20.60;71.30
2957;DHT22;1488;51.548;7.222;2023-04-25T07:34:11;20.60;70.70
2957;DHT22;1488;51.548;7.222;2023-04-25T07:36:38;20.60;71.00
2957;DHT22;1488;51.548;7.222;2023-04-25T07:39:05;20.60;71.00
2957;DHT22;1488;51.548;7.222;2023-04-25T07:41:34;20.70;70.70
2957;DHT22;1488;51.548;7.222;2023-04-25T07:44:03;20.60;70.40
2957;DHT22;1488;51.548;7.222;2023-04-25T07:46:29;20.60;70.00
2957;DHT22;1488;51.548;7.222;2023-04-25T07:48:59;20.60;70.20
2957;DHT22;1488;51.548;7.222;2023-04-25T07:51:26;20.70;70.70
2957;DHT22;1488;51.548;7.222;2023-04-25T07:53:53;20.60;70.70
2957;DHT22;1488;51.548;7.222;2023-04-25T07:56:20;20.70;70.90
2957;DHT22;1488;51.548;7.222;2023-04-25T07:58:47;20.70;70.90
2957;DHT22;1488;51.548;7.222;2023-04-25T08:01:15;20.70;71.00
2957;DHT22;1488;51.548;7.222;2023-04-25T08:03:42;20.70;71.00
2957;DHT22;1488;51.548;7.222;2023-04-25T08:06:09;20.70;71.00
2957;DHT22;1488;51.548;7.222;2023-04-25T08:08:35;20.70;71.40
2957;DHT22;1488;51.548;7.222;2023-04-25T08:11:02;20.80;71.80
2957;DHT22;1488;51.548;7.222;2023-04-25T08:13:29;20.80;71.90
2957;DHT22;1488;51.548;7.222;2023-04-25T08:15:56;20.70;72.00
2957;DHT22;1488;51.548;7.222;2023-04-25T08:18:24;20.70;72.00
2957;DHT22;1488;51.548;7.222;2023-04-25T08:20:51;20.70;72.30
2957;DHT22;1488;51.548;7.222;2023-04-25T08:23:18;20.80;72.30
2957;DHT22;1488;51.548;7.222;2023-04-25T08:25:45;20.80;72.50
2957;DHT22;1488;51.548;7.222;2023-04-25T08:28:12;20.80;72.40
2957;DHT22;1488;51.548;7.222;2023-04-25T08:30:39;20.80;72.30
2957;DHT22;1488;51.548;7.222;2023-04-25T08:33:09;20.80;72.40
2957;DHT22;1488;51.548;7.222;2023-04-25T08:35:37;20.80;72.50
2957;DHT22;1488;51.548;7.222;2023-04-25T08:38:04;20.80;72.40
2957;DHT22;1488;51.548;7.222;2023-04-25T08:40:37;20.80;72.50
2957;DHT22;1488;51.548;7.222;2023-04-25T08:43:06;20.80;72.50
2957;DHT22;1488;51.548;7.222;2023-04-25T08:45:39;20.80;73.10
2957;DHT22;1488;51.548;7.222;2023-04-25T08:48:07;20.70;72.50
2957;DHT22;1488;51.548;7.222;2023-04-25T08:50:39;20.80;72.80
2957;DHT22;1488;51.548;7.222;2023-04-25T08:53:09;20.90;72.90
2957;DHT22;1488;51.548;7.222;2023-04-25T08:55:41;20.80;72.90
2957;DHT22;1488;51.548;7.222;2023-04-25T08:58:09;21.00;73.10
2957;DHT22;1488;51.548;7.222;2023-04-25T09:00:37;20.90;72.90
2957;DHT22;1488;51.548;7.222;2023-04-25T09:03:04;21.00;73.00
2957;DHT22;1488;51.548;7.222;2023-04-25T09:05:32;20.90;72.80
2957;DHT22;1488;51.548;7.222;2023-04-25T09:08:00;21.00;72.90
2957;DHT22;1488;51.548;7.222;2023-04-25T09:10:27;21.00;73.00
2957;DHT22;1488;51.548;7.222;2023-04-25T09:13:05;21.00;73.00
2957;DHT22;1488;51.548;7.222;2023-04-25T09:15:47;21.00;73.00
2957;DHT22;1488;51.548;7.222;2023-04-25T09:18:22;21.00;72.90
2957;DHT22;1488;51.548;7.222;2023-04-25T09:20:49;21.10;72.90
2957;DHT22;1488;51.548;7.222;2023-04-25T09:23:19;21.10;72.90
2957;DHT22;1488;51.548;7.222;2023-04-25T09:25:47;21.10;72.90
2957;DHT22;1488;51.548;7.222;2023-04-25T09:28:14;21.10;72.80
2957;DHT22;1488;51.548;7.222;2023-04-25T09:30:42;21.10;72.80
2957;DHT22;1488;51.548;7.222;2023-04-25T09:33:10;21.10;72.80
2957;DHT22;1488;51.548;7.222;2023-04-25T09:35:37;21.00;72.70
2957;DHT22;1488;51.548;7.222;2023-04-25T09:38:09;21.00;72.60
2957;DHT22;1488;51.548;7.222;2023-04-25T09:40:41;21.10;72.90
2957;DHT22;1488;51.548;7.222;2023-04-25T09:43:18;21.00;72.90
2957;DHT22;1488;51.548;7.222;2023-04-25T09:45:46;21.10;73.20
2957;DHT22;1488;51.548;7.222;2023-04-25T09:48:17;21.10;73.20
2957;DHT22;1488;51.548;7.222;2023-04-25T09:50:45;21.10;73.10
2957;DHT22;1488;51.548;7.222;2023-04-25T09:53:12;21.10;73.10
2957;DHT22;1488;51.548;7.222;2023-04-25T09:55:42;21.20;73.20
2957;DHT22;1488;51.548;7.222;2023-04-25T09:58:11;21.20;73.30
2957;DHT22;1488;51.548;7.222;2023-04-25T10:00:39;21.20;73.40
2957;DHT22;1488;51.548;7.222;2023-04-25T10:03:07;21.20;73.50
2957;DHT22;1488;51.548;7.222;2023-04-25T10:05:35;21.30;73.60
2957;DHT22;1488;51.548;7.222;2023-04-25T10:08:04;21.30;73.50
2957;DHT22;1488;51.548;7.222;2023-04-25T10:10:32;21.30;73.30
2957;DHT22;1488;51.548;7.222;2023-04-25T10:13:05;21.30;73.30
2957;DHT22;1488;51.548;7.222;2023-04-25T10:15:34;21.30;73.20
2957;DHT22;1488;51.548;7.222;2023-04-25T10:18:02;21.30;73.10
2957;DHT22;1488;51.548;7.222;2023-04-25T10:20:29;21.30;73.00
2957;DHT22;1488;51.548;7.222;2023-04-25T10:23:03;21.30;73.20
2957;DHT22;1488;51.548;7.222;2023-04-25T10:25:32;21.30;73.20
2957;DHT22;1488;51.548;7.222;2023-04-25T10:28:00;21.30;73.10
2957;DHT22;1488;51.548;7.222;2023-04-25T10:30:29;21.30;73.00
2957;DHT22;1488;51.548;7.222;2023-04-25T10:32:56;21.30;72.90
2957;DHT22;1488;51.548;7.222;2023-04-25T10:35:25;21.30;73.00
2957;DHT22;1488;51.548;7.222;2023-04-25T10:37:59;21.30;72.90
2957;DHT22;1488;51.548;7.222;2023-04-25T10:40:26;21.20;72.80
2957;DHT22;1488;51.548;7.222;2023-04-25T10:42:54;21.20;72.80
2957;DHT22;1488;51.548;7.222;2023-04-25T10:45:21;21.20;72.80
2957;DHT22;1488;51.548;7.222;2023-04-25T10:47:50;21.20;72.70
2957;DHT22;1488;51.548;7.222;2023-04-25T10:50:17;21.20;72.70
2957;DHT22;1488;51.548;7.222;2023-04-25T10:52:44;21.20;72.70
2957;DHT22;1488;51.548;7.222;2023-04-25T10:55:11;21.30;72.90
2957;DHT22;1488;51.548;7.222;2023-04-25T10:57:40;21.20;72.80
2957;DHT22;1488;51.548;7.222;2023-04-25T11:00:14;21.20;72.80
2957;DHT22;1488;51.548;7.222;2023-04-25T11:02:42;21.10;72.80
2957;DHT22;1488;51.548;7.222;2023-04-25T11:05:19;21.10;72.90
2957;DHT22;1488;51.548;7.222;2023-04-25T11:07:50;21.20;72.80
2957;DHT22;1488;51.548;7.222;2023-04-25T11:10:17;21.10;72.40
2957;DHT22;1488;51.548;7.222;2023-04-25T11:12:45;21.10;72.40
2957;DHT22;1488;51.548;7.222;2023-04-25T11:15:14;21.10;72.30
2957;DHT22;1488;51.548;7.222;2023-04-25T11:17:41;21.00;72.10
2957;DHT22;1488;51.548;7.222;2023-04-25T11:20:12;21.00;72.20
2957;DHT22;1488;51.548;7.222;2023-04-25T11:22:39;21.00;72.20
2957;DHT22;1488;51.548;7.222;2023-04-25T11:25:08;21.00;72.20
2957;DHT22;1488;51.548;7.222;2023-04-25T11:27:38;21.00;72.20
2957;DHT22;1488;51.548;7.222;2023-04-25T11:30:14;21.00;72.30
2957;DHT22;1488;51.548;7.222;2023-04-25T11:32:41;21.00;72.40
2957;DHT22;1488;51.548;7.222;2023-04-25T11:35:09;21.00;72.40
2957;DHT22;1488;51.548;7.222;2023-04-25T11:37:38;21.00;72.70
2957;DHT22;1488;51.548;7.222;2023-04-25T11:40:07;21.00;72.80
2957;DHT22;1488;51.548;7.222;2023-04-25T11:42:36;21.00;72.80
2957;DHT22;1488;51.548;7.222;2023-04-25T11:45:06;21.10;73.40
2957;DHT22;1488;51.548;7.222;2023-04-25T11:47:34;21.10;73.40
2957;DHT22;1488;51.548;7.222;2023-04-25T11:50:01;21.10;73.20
2957;DHT22;1488;51.548;7.222;2023-04-25T11:52:37;21.20;73.60
2957;DHT22;1488;51.548;7.222;2023-04-25T11:55:06;21.20;74.60
2957;DHT22;1488;51.548;7.222;2023-04-25T11:57:33;21.20;73.80
2957;DHT22;1488;51.548;7.222;2023-04-25T12:00:09;21.40;74.00
2957;DHT22;1488;51.548;7.222;2023-04-25T12:02:40;21.30;73.90
2957;DHT22;1488;51.548;7.222;2023-04-25T12:05:07;21.30;74.00
2957;DHT22;1488;51.548;7.222;2023-04-25T12:07:35;21.30;74.00
2957;DHT22;1488;51.548;7.222;2023-04-25T12:10:06;21.40;73.90
2957;DHT22;1488;51.548;7.222;2023-04-25T12:12:34;21.40;74.10
2957;DHT22;1488;51.548;7.222;2023-04-25T12:15:12;21.40;74.10
2957;DHT22;1488;51.548;7.222;2023-04-25T12:17:41;21.50;75.10
2957;DHT22;1488;51.548;7.222;2023-04-25T12:20:10;21.50;74.10
2957;DHT22;1488;51.548;7.222;2023-04-25T12:22:37;21.50;74.00
2957;DHT22;1488;51.548;7.222;2023-04-25T12:25:06;21.60;73.90
2957;DHT22;1488;51.548;7.222;2023-04-25T12:27:33;21.50;73.60
2957;DHT22;1488;51.548;7.222;2023-04-25T12:30:01;21.60;73.70
2957;DHT22;1488;51.548;7.222;2023-04-25T12:32:29;21.60;73.50
2957;DHT22;1488;51.548;7.222;2023-04-25T12:34:56;21.60;73.30
2957;DHT22;1488;51.548;7.222;2023-04-25T12:37:23;21.50;73.20
2957;DHT22;1488;51.548;7.222;2023-04-25T12:39:50;21.60;73.30
2957;DHT22;1488;51.548;7.222;2023-04-25T12:42:18;21.50;73.10
2957;DHT22;1488;51.548;7.222;2023-04-25T12:44:45;21.50;73.10
2957;DHT22;1488;51.548;7.222;2023-04-25T12:47:12;21.50;73.10
2957;DHT22;1488;51.548;7.222;2023-04-25T12:49:39;21.50;73.00
2957;DHT22;1488;51.548;7.222;2023-04-25T12:52:06;21.60;73.20
2957;DHT22;1488;51.548;7.222;2023-04-25T12:54:33;21.50;73.10
2957;DHT22;1488;51.548;7.222;2023-04-25T12:57:00;21.50;72.90
2957;DHT22;1488;51.548;7.222;2023-04-25T12:59:29;21.50;72.90
2957;DHT22;1488;51.548;7.222;2023-04-25T13:01:56;21.50;73.00
2957;DHT22;1488;51.548;7.222;2023-04-25T13:04:23;21.40;72.90
2957;DHT22;1488;51.548;7.222;2023-04-25T13:06:50;21.40;72.90
2957;DHT22;1488;51.548;7.222;2023-04-25T13:09:17;21.40;73.00
2957;DHT22;1488;51.548;7.222;2023-04-25T13:11:44;21.50;73.10
2957;DHT22;1488;51.548;7.222;2023-04-25T13:14:11;21.40;72.80
2957;DHT22;1488;51.548;7.222;2023-04-25T13:16:39;21.40;73.00
2957;DHT22;1488;51.548;7.222;2023-04-25T13:19:06;21.40;73.10
2957;DHT22;1488;51.548;7.222;2023-04-25T13:21:36;21.50;73.40
2957;DHT22;1488;51.548;7.222;2023-04-25T13:24:03;21.40;73.20
2957;DHT22;1488;51.548;7.222;2023-04-25T13:26:30;21.40;73.10
2957;DHT22;1488;51.548;7.222;2023-04-25T13:29:01;21.40;72.90
2957;DHT22;1488;51.548;7.222;2023-04-25T13:31:29;21.60;73.10
2957;DHT22;1488;51.548;7.222;2023-04-25T13:33:57;21.60;73.00
2957;DHT22;1488;51.548;7.222;2023-04-25T13:36:24;21.40;72.80
2957;DHT22;1488;51.548;7.222;2023-04-25T13:38:51;21.40;72.80
2957;DHT22;1488;51.548;7.222;2023-04-25T13:41:18;21.40;72.80
2957;DHT22;1488;51.548;7.222;2023-04-25T13:43:46;21.40;72.80
2957;DHT22;1488;51.548;7.222;2023-04-25T13:46:14;21.40;72.70
2957;DHT22;1488;51.548;7.222;2023-04-25T13:48:42;21.40;72.80
2957;DHT22;1488;51.548;7.222;2023-04-25T13:51:15;21.50;72.90
2957;DHT22;1488;51.548;7.222;2023-04-25T13:53:43;21.40;72.80
2957;DHT22;1488;51.548;7.222;2023-04-25T13:56:11;21.40;72.80
2957;DHT22;1488;51.548;7.222;2023-04-25T13:58:38;21.40;72.90
2957;DHT22;1488;51.548;7.222;2023-04-25T14:01:05;21.40;72.80
2957;DHT22;1488;51.548;7.222;2023-04-25T14:03:32;21.40;72.90
2957;DHT22;1488;51.548;7.222;2023-04-25T14:05:58;21.40;72.90
2957;DHT22;1488;51.548;7.222;2023-04-25T14:08:28;21.40;72.90
2957;DHT22;1488;51.548;7.222;2023-04-25T14:10:55;21.40;72.90
2957;DHT22;1488;51.548;7.222;2023-04-25T14:13:22;21.40;73.00
2957;DHT22;1488;51.548;7.222;2023-04-25T14:15:49;21.40;72.90
2957;DHT22;1488;51.548;7.222;2023-04-25T14:18:17;21.40;73.00
2957;DHT22;1488;51.548;7.222;2023-04-25T14:20:44;21.40;73.00
2957;DHT22;1488;51.548;7.222;2023-04-25T14:23:14;21.40;72.90
2957;DHT22;1488;51.548;7.222;2023-04-25T14:25:42;21.40;72.60
2957;DHT22;1488;51.548;7.222;2023-04-25T14:28:10;21.40;72.80
2957;DHT22;1488;51.548;7.222;2023-04-25T14:30:59;21.40;72.80
2957;DHT22;1488;51.548;7.222;2023-04-25T14:33:29;21.50;72.50
2957;DHT22;1488;51.548;7.222;2023-04-25T14:35:58;21.40;72.30
2957;DHT22;1488;51.548;7.222;2023-04-25T14:38:25;21.50;72.40
2957;DHT22;1488;51.548;7.222;2023-04-25T14:40:53;21.40;72.10
2957;DHT22;1488;51.548;7.222;2023-04-25T14:43:20;21.40;72.10
2957;DHT22;1488;51.548;7.222;2023-04-25T14:45:47;21.40;72.00
2957;DHT22;1488;51.548;7.222;2023-04-25T14:48:14;21.40;71.90
2957;DHT22;1488;51.548;7.222;2023-04-25T14:50:43;21.40;71.90
2957;DHT22;1488;51.548;7.222;2023-04-25T14:53:10;21.40;71.70
2957;DHT22;1488;51.548;7.222;2023-04-25T14:55:37;21.50;71.90
2957;DHT22;1488;51.548;7.222;2023-04-25T14:58:05;21.30;71.50
2957;DHT22;1488;51.548;7.222;2023-04-25T15:00:33;21.40;71.60
2957;DHT22;1488;51.548;7.222;2023-04-25T15:03:00;21.40;71.70
2957;DHT22;1488;51.548;7.222;2023-04-25T15:05:27;21.40;71.60
2957;DHT22;1488;51.548;7.222;2023-04-25T15:07:53;21.30;71.40
2957;DHT22;1488;51.548;7.222;2023-04-25T15:10:21;21.30;71.40
2957;DHT22;1488;51.548;7.222;2023-04-25T15:12:49;21.30;71.50
2957;DHT22;1488;51.548;7.222;2023-04-25T15:15:17;21.30;71.40
2957;DHT22;1488;51.548;7.222;2023-04-25T15:17:44;21.30;71.30
2957;DHT22;1488;51.548;7.222;2023-04-25T15:20:13;21.30;71.40
2957;DHT22;1488;51.548;7.222;2023-04-25T15:22:41;21.30;71.40
2957;DHT22;1488;51.548;7.222;2023-04-25T15:25:10;21.30;71.40
2957;DHT22;1488;51.548;7.222;2023-04-25T15:27:38;21.30;71.40
2957;DHT22;1488;51.548;7.222;2023-04-25T15:30:10;21.30;71.40
2957;DHT22;1488;51.548;7.222;2023-04-25T15:32:39;21.30;71.30
2957;DHT22;1488;51.548;7.222;2023-04-25T15:35:07;21.30;71.30
2957;DHT22;1488;51.548;7.222;2023-04-25T15:37:34;21.30;71.30
2957;DHT22;1488;51.548;7.222;2023-04-25T15:40:03;21.30;71.40
2957;DHT22;1488;51.548;7.222;2023-04-25T15:42:36;21.30;71.30
2957;DHT22;1488;51.548;7.222;2023-04-25T15:45:05;21.30;71.30
2957;DHT22;1488;51.548;7.222;2023-04-25T15:47:32;21.30;71.20
2957;DHT22;1488;51.548;7.222;2023-04-25T15:50:02;21.30;71.20
2957;DHT22;1488;51.548;7.222;2023-04-25T15:52:31;21.30;71.30
2957;DHT22;1488;51.548;7.222;2023-04-25T15:54:58;21.30;71.30
2957;DHT22;1488;51.548;7.222;2023-04-25T15:57:29;21.30;71.20
2957;DHT22;1488;51.548;7.222;2023-04-25T15:59:56;21.30;71.10
2957;DHT22;1488;51.548;7.222;2023-04-25T16:02:23;21.30;72.00
2957;DHT22;1488;51.548;7.222;2023-04-25T16:04:49;21.30;71.00
2957;DHT22;1488;51.548;7.222;2023-04-25T16:07:18;21.30;71.00
2957;DHT22;1488;51.548;7.222;2023-04-25T16:09:45;21.30;71.00